Time;durP1;ratioP1;P1;durP2;ratioP2;P2;SDS_P1;SDS_P2;PMS_P1;PMS_P2;Temp;Humidity;BMP_temperature;BMP_pressure;BME280_temperature;BME280_humidity;BME280_pressure;Samples;Min_cycle;Max_cycle;Signal;HPM_P1;HPM_P2
2022/03/11 00:00:42;;;;;;;19.53;10.27;;;6.80;66.40;;;;;;5018648;28;20476;-71
2022/03/11 00:03:10;;;;;;;14.13;10.10;;;6.80;66.50;;;;;;5053174;28;20128;-71
2022/03/11 00:05:36;;;;;;;14.13;9.93;;;6.70;66.50;;;;;;5052615;28;20061;-71
2022/03/11 00:08:03;;;;;;;14.43;10.30;;;6.70;66.50;;;;;;5053171;28;20048;-71
2022/03/11 00:10:29;;;;;;;16.40;10.10;;;6.70;66.80;;;;;;5052806;28;20106;-75
2022/03/11 00:12:55;;;;;;;13.50;9.55;;;6.70;66.60;;;;;;5053399;28;20091;-71
2022/03/11 00:15:21;;;;;;;17.00;9.73;;;6.70;67.30;;;;;;5053141;28;20085;-71
2022/03/11 00:17:47;;;;;;;19.13;10.18;;;6.70;66.70;;;;;;5052691;28;20045;-71
2022/03/11 00:20:19;;;;;;;14.73;10.45;;;6.70;66.70;;;;;;5035368;28;20053;-71
2022/03/11 00:22:46;;;;;;;14.02;9.18;;;6.60;66.70;;;;;;5035232;28;20052;-71
2022/03/11 00:25:12;;;;;;;13.65;10.15;;;6.60;66.70;;;;;;5052662;28;20514;-71
2022/03/11 00:27:38;;;;;;;16.77;10.40;;;6.60;66.80;;;;;;5052630;28;20098;-72
2022/03/11 00:30:05;;;;;;;16.53;10.77;;;6.60;66.90;;;;;;5052880;28;20099;-71
2022/03/11 00:32:30;;;;;;;15.32;10.13;;;6.50;66.90;;;;;;5052580;28;20080;-75
2022/03/11 00:34:56;;;;;;;21.77;10.70;;;6.50;67.10;;;;;;5052403;28;20091;-71
2022/03/11 00:37:22;;;;;;;17.13;10.83;;;6.50;67.20;;;;;;5035134;28;20049;-71
2022/03/11 00:39:48;;;;;;;14.87;10.10;;;6.40;67.20;;;;;;5052364;28;20044;-71
2022/03/11 00:42:14;;;;;;;14.52;10.15;;;6.30;67.40;;;;;;5052604;28;20060;-71
2022/03/11 00:44:40;;;;;;;13.67;9.93;;;6.40;67.60;;;;;;5034730;28;20044;-71
2022/03/11 00:47:07;;;;;;;15.10;10.15;;;6.30;67.80;;;;;;5053007;28;20055;-71
2022/03/11 00:49:33;;;;;;;14.32;9.80;;;6.20;68.00;;;;;;5052517;28;20045;-72
2022/03/11 00:51:59;;;;;;;16.75;10.98;;;6.20;68.30;;;;;;5052706;28;20504;-71
2022/03/11 00:54:25;;;;;;;17.23;10.70;;;6.20;68.40;;;;;;5052416;28;20057;-71
2022/03/11 00:56:51;;;;;;;16.70;11.23;;;6.10;68.50;;;;;;5052330;28;20128;-71
2022/03/11 00:59:17;;;;;;;19.53;10.83;;;6.10;68.70;;;;;;5052567;28;20427;-71
2022/03/11 01:01:43;;;;;;;18.17;10.90;;;6.10;68.90;;;;;;5034559;28;20041;-71
2022/03/11 01:04:08;;;;;;;15.97;10.90;;;6.00;69.20;;;;;;5034974;28;20049;-71
2022/03/11 01:06:35;;;;;;;18.87;10.43;;;6.00;69.40;;;;;;5052409;28;20137;-72
2022/03/11 01:09:00;;;;;;;13.40;10.23;;;6.00;69.50;;;;;;5052448;28;20547;-71
2022/03/11 01:11:26;;;;;;;18.33;10.77;;;6.00;69.70;;;;;;5034951;28;20048;-71
2022/03/11 01:13:52;;;;;;;15.10;10.33;;;6.00;69.80;;;;;;5034321;28;20049;-71
2022/03/11 01:16:18;;;;;;;16.00;10.20;;;6.00;69.80;;;;;;5035256;28;20057;-71
2022/03/11 01:18:43;;;;;;;13.90;9.83;;;5.90;70.00;;;;;;5052160;28;20107;-71
2022/03/11 01:21:10;;;;;;;13.57;10.03;;;5.90;70.10;;;;;;5052402;28;20041;-71
2022/03/11 01:23:36;;;;;;;16.48;10.52;;;5.80;70.10;;;;;;5052039;28;20049;-76
2022/03/11 01:26:01;;;;;;;14.38;10.38;;;5.90;70.50;;;;;;5052338;28;20408;-71
2022/03/11 01:28:27;;;;;;;14.13;9.73;;;5.90;70.30;;;;;;5052452;28;20045;-71
2022/03/11 01:30:53;;;;;;;17.50;10.30;;;5.80;70.60;;;;;;5051985;28;20052;-71
2022/03/11 01:33:19;;;;;;;12.80;9.73;;;5.80;70.60;;;;;;5034535;28;20111;-71
2022/03/11 01:35:46;;;;;;;14.65;10.13;;;5.80;71.30;;;;;;5052065;28;20053;-71
2022/03/11 01:38:12;;;;;;;14.93;9.90;;;5.80;70.80;;;;;;5052276;28;20052;-71
2022/03/11 01:40:38;;;;;;;16.98;9.75;;;5.80;71.00;;;;;;5034328;28;20436;-71
2022/03/11 01:43:03;;;;;;;14.53;9.90;;;5.70;71.10;;;;;;5051816;28;20068;-71
2022/03/11 01:45:29;;;;;;;13.40;9.20;;;5.80;71.20;;;;;;5034988;28;20048;-71
2022/03/11 01:47:55;;;;;;;15.93;9.03;;;5.70;71.00;;;;;;5055488;28;20103;-71
2022/03/11 01:50:20;;;;;;;15.40;9.57;;;5.70;71.20;;;;;;5021485;28;20512;-71
2022/03/11 01:52:46;;;;;;;13.83;9.10;;;5.70;71.30;;;;;;5055461;28;20051;-71
2022/03/11 01:55:14;;;;;;;14.17;9.37;;;5.70;71.50;;;;;;5055699;28;20085;-71
2022/03/11 01:57:40;;;;;;;13.48;9.20;;;5.60;71.70;;;;;;5055311;28;20107;-71
2022/03/11 02:00:07;;;;;;;15.47;9.87;;;5.60;71.90;;;;;;5055486;28;20057;-71
2022/03/11 02:02:33;;;;;;;16.08;9.32;;;5.60;72.10;;;;;;5037950;28;20111;-71
2022/03/11 02:05:00;;;;;;;14.55;8.48;;;5.60;72.30;;;;;;5055046;28;20236;-71
2022/03/11 02:07:26;;;;;;;15.73;8.20;;;5.60;72.70;;;;;;5037995;28;20131;-70
2022/03/11 02:09:53;;;;;;;16.45;8.48;;;5.50;72.90;;;;;;5055031;28;20168;-70
2022/03/11 02:12:36;;;;;;;14.98;8.65;;;5.50;72.90;;;;;;5055580;28;20122;-70
2022/03/11 02:15:04;;;;;;;13.68;8.88;;;5.50;73.20;;;;;;5055044;28;20084;-70
2022/03/11 02:17:30;;;;;;;13.75;8.88;;;5.50;73.40;;;;;;5037634;28;20435;-70
2022/03/11 02:19:56;;;;;;;15.17;8.90;;;5.50;73.70;;;;;;5054854;28;20037;-71
2022/03/11 02:22:24;;;;;;;14.05;8.80;;;5.50;74.00;;;;;;5055088;28;20045;-70
2022/03/11 02:24:53;;;;;;;15.48;8.90;;;5.40;74.40;;;;;;5054741;28;20378;-70
2022/03/11 02:27:20;;;;;;;14.80;8.82;;;5.40;74.60;;;;;;5037260;28;20423;-70
2022/03/11 02:29:46;;;;;;;14.68;8.98;;;5.40;74.90;;;;;;5036875;28;20080;-70
2022/03/11 02:32:12;;;;;;;14.97;8.90;;;5.40;75.10;;;;;;5037345;28;20075;-70
2022/03/11 02:34:38;;;;;;;13.63;8.77;;;5.40;75.60;;;;;;5054891;28;20049;-70
2022/03/11 02:37:05;;;;;;;13.45;8.43;;;5.40;75.70;;;;;;5054495;28;20049;-70
2022/03/11 02:39:31;;;;;;;13.35;8.43;;;5.30;76.40;;;;;;5054778;28;20045;-70
2022/03/11 02:41:58;;;;;;;18.40;9.05;;;5.30;76.50;;;;;;5054373;28;20036;-70
2022/03/11 02:44:24;;;;;;;14.60;8.50;;;5.20;76.80;;;;;;5054615;28;20124;-70
2022/03/11 02:46:50;;;;;;;14.80;8.77;;;5.20;76.90;;;;;;5036199;28;20139;-70
2022/03/11 02:49:16;;;;;;;15.50;9.13;;;5.20;77.60;;;;;;5037004;28;20766;-71
2022/03/11 02:51:42;;;;;;;13.53;8.97;;;5.20;77.90;;;;;;5036899;28;20045;-70
2022/03/11 02:54:08;;;;;;;14.77;9.17;;;5.20;78.50;;;;;;5054276;28;20053;-70
2022/03/11 02:56:34;;;;;;;13.17;8.40;;;5.10;78.50;;;;;;5036397;28;20044;-70
2022/03/11 02:58:59;;;;;;;14.17;9.70;;;5.10;79.30;;;;;;5054109;28;20095;-70
2022/03/11 03:01:25;;;;;;;15.10;9.00;;;5.20;89.70;;;;;;5036656;28;20049;-70
2022/03/11 03:03:51;;;;;;;14.20;8.67;;;5.20;91.40;;;;;;5053999;28;20049;-70
2022/03/11 03:06:17;;;;;;;12.23;8.87;;;5.10;91.20;;;;;;5036145;28;20061;-70
2022/03/11 03:08:42;;;;;;;14.63;8.73;;;5.10;91.90;;;;;;5054232;28;20132;-70
2022/03/11 03:11:08;;;;;;;13.77;8.70;;;5.20;92.00;;;;;;5053876;28;20118;-70
2022/03/11 03:13:34;;;;;;;14.70;8.67;;;5.10;92.80;;;;;;5036392;28;20051;-70
2022/03/11 03:16:00;;;;;;;13.57;9.10;;;5.10;92.90;;;;;;5053201;28;20554;-70
2022/03/11 03:18:25;;;;;;;14.50;9.33;;;5.10;93.60;;;;;;5054052;28;20049;-70
2022/03/11 03:20:51;;;;;;;13.87;9.23;;;5.10;94.30;;;;;;5053584;28;20048;-70
2022/03/11 03:23:17;;;;;;;14.20;8.80;;;5.10;94.30;;;;;;5019892;28;20128;-70
2022/03/11 03:25:42;;;;;;;16.03;9.80;;;5.00;94.50;;;;;;5053961;28;20040;-70
2022/03/11 03:28:09;;;;;;;13.93;9.47;;;4.90;95.00;;;;;;5035994;28;20045;-70
2022/03/11 03:30:34;;;;;;;18.17;9.50;;;5.00;95.30;;;;;;5036231;28;20041;-70
2022/03/11 03:33:00;;;;;;;14.63;9.87;;;4.90;95.70;;;;;;5035895;28;20044;-70
2022/03/11 03:35:26;;;;;;;16.83;9.23;;;4.90;93.20;;;;;;5054044;28;20155;-70
2022/03/11 03:37:52;;;;;;;17.30;10.03;;;4.80;93.60;;;;;;5053449;28;20272;-70
2022/03/11 03:40:17;;;;;;;15.77;9.83;;;4.80;96.60;;;;;;5035468;28;20048;-70
2022/03/11 03:42:47;;;;;;;14.33;10.10;;;4.90;96.90;;;;;;5036145;28;20053;-70
2022/03/11 03:45:13;;;;;;;14.35;10.10;;;4.80;97.30;;;;;;5053513;28;20080;-70
2022/03/11 03:47:39;;;;;;;16.08;10.23;;;4.70;89.20;;;;;;5053569;28;20136;-70
2022/03/11 03:50:05;;;;;;;15.07;9.70;;;4.70;89.50;;;;;;5035619;28;20182;-70
2022/03/11 03:52:32;;;;;;;17.83;9.95;;;4.60;89.90;;;;;;5053409;28;20056;-70
2022/03/11 03:54:58;;;;;;;16.38;10.68;;;4.60;89.90;;;;;;5035389;28;20094;-70
2022/03/11 03:57:25;;;;;;;19.40;10.60;;;4.60;90.10;;;;;;5053340;28;20043;-70
2022/03/11 03:59:51;;;;;;;19.02;11.13;;;4.60;91.10;;;;;;5052981;28;20485;-71
2022/03/11 04:02:16;;;;;;;15.47;10.90;;;4.50;91.70;;;;;;5035640;28;20098;-70
2022/03/11 04:04:42;;;;;;;17.57;10.90;;;4.50;91.20;;;;;;5052805;28;20040;-70
2022/03/11 04:07:08;;;;;;;18.53;11.00;;;4.60;91.00;;;;;;5011518;28;20049;-70
2022/03/11 04:09:33;;;;;;;23.30;11.50;;;4.50;91.60;;;;;;5011911;28;20089;-70
2022/03/11 04:11:59;;;;;;;19.33;11.73;;;4.50;92.00;;;;;;5012947;28;20042;-70
2022/03/11 04:14:25;;;;;;;18.23;10.90;;;4.50;91.90;;;;;;5013409;28;20049;-70
2022/03/11 04:16:51;;;;;;;18.73;12.07;;;4.50;91.70;;;;;;5013436;28;20046;-70
2022/03/11 04:19:16;;;;;;;18.20;11.57;;;4.40;92.10;;;;;;5012239;28;20050;-70
2022/03/11 04:21:42;;;;;;;16.37;11.20;;;4.40;92.40;;;;;;5012359;28;20462;-70
2022/03/11 04:24:13;;;;;;;15.80;10.43;;;4.50;92.40;;;;;;5012001;28;20045;-70
2022/03/11 04:26:43;;;;;;;20.13;11.95;;;4.40;92.80;;;;;;5013546;28;20065;-70
2022/03/11 04:29:10;;;;;;;19.25;12.45;;;4.40;93.00;;;;;;5013087;28;20062;-70
2022/03/11 04:31:35;;;;;;;16.25;11.73;;;4.40;93.10;;;;;;5012224;28;20060;-70
2022/03/11 04:34:02;;;;;;;16.70;12.23;;;4.40;93.10;;;;;;5012946;28;20057;-70
2022/03/11 04:36:29;;;;;;;16.92;11.93;;;4.30;93.70;;;;;;4995852;28;20470;-70
2022/03/11 04:38:55;;;;;;;17.17;11.82;;;4.30;93.90;;;;;;5012875;28;20101;-71
2022/03/11 04:41:21;;;;;;;18.27;12.50;;;4.30;93.90;;;;;;5011966;28;20052;-70
2022/03/11 04:43:47;;;;;;;19.42;12.52;;;4.30;94.00;;;;;;5013201;28;20054;-70
2022/03/11 04:46:13;;;;;;;17.67;11.90;;;4.30;93.80;;;;;;5012824;28;20133;-70
2022/03/11 04:48:40;;;;;;;18.50;12.80;;;4.30;94.10;;;;;;5011981;28;20049;-70
2022/03/11 04:51:06;;;;;;;18.60;13.40;;;4.30;94.20;;;;;;5011939;28;20078;-71
2022/03/11 04:53:32;;;;;;;17.60;13.27;;;4.30;94.40;;;;;;5013214;28;20469;-70
2022/03/11 04:55:57;;;;;;;19.07;12.60;;;4.20;94.80;;;;;;5012734;28;20050;-71
2022/03/11 04:58:24;;;;;;;17.93;12.67;;;4.20;95.10;;;;;;5012890;28;20137;-70
2022/03/11 05:00:50;;;;;;;21.60;13.45;;;4.20;95.40;;;;;;5012897;28;20046;-70
2022/03/11 05:03:15;;;;;;;17.90;13.80;;;4.20;95.30;;;;;;5012643;28;20112;-70
2022/03/11 05:05:41;;;;;;;20.07;13.07;;;4.20;95.40;;;;;;5011754;28;20046;-70
2022/03/11 05:08:07;;;;;;;20.73;13.43;;;4.20;95.00;;;;;;5049980;28;20057;-70
2022/03/11 05:10:33;;;;;;;19.40;13.50;;;4.20;95.60;;;;;;5052450;28;20118;-70
2022/03/11 05:12:59;;;;;;;22.70;14.27;;;4.10;95.50;;;;;;5052219;28;20045;-71
2022/03/11 05:15:24;;;;;;;19.88;14.50;;;4.10;96.00;;;;;;5052434;28;20124;-70
2022/03/11 05:17:51;;;;;;;19.77;14.17;;;4.10;95.80;;;;;;5034909;28;20049;-70
2022/03/11 05:20:17;;;;;;;20.00;14.68;;;4.10;96.00;;;;;;5053524;28;20048;-70
2022/03/11 05:22:43;;;;;;;23.42;14.35;;;4.00;96.40;;;;;;5056042;28;20095;-70
2022/03/11 05:25:10;;;;;;;20.53;13.77;;;4.00;95.80;;;;;;5055945;28;20048;-70
2022/03/11 05:27:37;;;;;;;22.55;14.48;;;4.00;96.50;;;;;;5021994;28;20064;-70
2022/03/11 05:30:05;;;;;;;20.48;14.27;;;4.00;96.30;;;;;;5055763;28;20049;-70
2022/03/11 05:32:31;;;;;;;21.48;15.05;;;4.00;96.50;;;;;;5038532;28;20052;-70
2022/03/11 05:34:56;;;;;;;20.80;14.67;;;4.00;96.60;;;;;;5056064;28;20399;-70
2022/03/11 05:37:22;;;;;;;23.97;15.80;;;4.00;96.50;;;;;;5037837;28;20098;-70
2022/03/11 05:39:48;;;;;;;21.40;15.63;;;3.90;96.80;;;;;;5056000;28;20056;-70
2022/03/11 05:42:14;;;;;;;24.63;14.83;;;3.90;97.10;;;;;;5038170;28;20056;-70
2022/03/11 05:44:39;;;;;;;21.57;15.87;;;3.90;97.20;;;;;;5056474;28;20400;-70
2022/03/11 05:47:05;;;;;;;20.93;15.33;;;3.90;97.10;;;;;;5037822;28;20041;-70
2022/03/11 05:49:31;;;;;;;22.80;14.83;;;3.80;97.20;;;;;;5056022;28;20044;-71
2022/03/11 05:51:57;;;;;;;21.13;15.57;;;3.80;97.80;;;;;;5055772;28;20048;-71
2022/03/11 05:54:23;;;;;;;22.43;16.10;;;3.80;97.60;;;;;;5037590;28;20463;-71
2022/03/11 05:56:54;;;;;;;23.73;15.43;;;3.80;98.00;;;;;;5055614;28;20056;-71
2022/03/11 05:59:23;;;;;;;27.58;16.38;;;3.80;97.60;;;;;;5055290;28;20112;-71
2022/03/11 06:01:49;;;;;;;21.63;15.80;;;3.80;97.50;;;;;;5037592;28;20451;-71
2022/03/11 06:04:14;;;;;;;22.03;15.47;;;3.80;97.60;;;;;;5055281;28;20132;-72
2022/03/11 06:06:40;;;;;;;24.70;16.00;;;3.70;98.00;;;;;;5055540;28;20053;-71
2022/03/11 06:09:08;;;;;;;36.93;25.87;;;3.70;98.10;;;;;;5020736;28;20053;-71
2022/03/11 06:11:34;;;;;;;26.10;19.73;;;3.70;98.20;;;;;;5055188;28;20374;-71
2022/03/11 06:14:00;;;;;;;29.23;19.95;;;3.70;98.20;;;;;;5021227;28;20052;-71
2022/03/11 06:16:27;;;;;;;26.47;21.17;;;3.70;98.50;;;;;;5055013;28;20106;-72
2022/03/11 06:18:53;;;;;;;20.92;15.48;;;3.70;98.20;;;;;;5055197;28;20053;-71
2022/03/11 06:21:18;;;;;;;23.17;16.20;;;3.60;98.10;;;;;;5020565;28;20377;-71
2022/03/11 06:23:44;;;;;;;25.47;16.73;;;3.70;98.10;;;;;;5055127;28;20045;-71
2022/03/11 06:26:10;;;;;;;22.80;16.40;;;3.70;98.30;;;;;;5037064;28;20049;-72
2022/03/11 06:28:36;;;;;;;25.07;16.47;;;3.70;98.20;;;;;;5055230;28;20045;-71
2022/03/11 06:31:02;;;;;;;23.90;16.88;;;3.70;98.20;;;;;;5054675;28;20053;-71
2022/03/11 06:33:28;;;;;;;24.33;17.53;;;3.70;98.10;;;;;;5054376;28;20044;-71
2022/03/11 06:35:54;;;;;;;25.63;16.97;;;3.70;98.20;;;;;;5055002;28;20480;-71
2022/03/11 06:38:19;;;;;;;26.07;17.23;;;3.70;98.20;;;;;;5036925;28;20170;-71
2022/03/11 06:40:45;;;;;;;27.10;17.90;;;3.70;98.20;;;;;;5037066;28;20098;-71
2022/03/11 06:43:11;;;;;;;21.03;15.47;;;3.70;98.30;;;;;;5036876;28;20162;-72
2022/03/11 06:45:37;;;;;;;27.03;17.73;;;3.70;98.30;;;;;;5054752;28;20049;-71
2022/03/11 06:48:03;;;;;;;26.48;16.73;;;3.70;98.50;;;;;;5036951;28;20280;-71
2022/03/11 06:50:29;;;;;;;25.88;17.10;;;3.70;98.20;;;;;;5054307;28;20495;-71
2022/03/11 06:52:54;;;;;;;24.17;17.70;;;3.80;98.20;;;;;;5037183;28;20044;-71
2022/03/11 06:55:20;;;;;;;25.00;17.60;;;3.80;98.10;;;;;;5054293;28;20477;-71
2022/03/11 06:57:47;;;;;;;23.67;16.70;;;3.80;98.20;;;;;;5054475;28;20048;-71
2022/03/11 07:00:14;;;;;;;25.35;17.33;;;3.80;97.80;;;;;;5054055;28;20052;-72
2022/03/11 07:02:39;;;;;;;26.35;18.48;;;3.90;97.80;;;;;;5054332;28;20052;-71
2022/03/11 07:05:07;;;;;;;29.00;18.03;;;3.90;97.70;;;;;;5054415;28;20048;-71
2022/03/11 07:07:33;;;;;;;23.40;16.85;;;3.90;97.60;;;;;;5032546;28;20060;-71
2022/03/11 07:10:00;;;;;;;24.67;17.02;;;3.90;97.30;;;;;;5034389;28;20045;-71
2022/03/11 07:12:27;;;;;;;25.88;16.17;;;4.00;97.20;;;;;;5034039;28;20053;-71
2022/03/11 07:14:53;;;;;;;24.98;17.77;;;4.00;97.20;;;;;;5032963;28;20053;-71
2022/03/11 07:17:19;;;;;;;27.73;17.60;;;4.10;97.10;;;;;;5034250;28;20049;-71
2022/03/11 07:19:44;;;;;;;24.97;17.00;;;4.10;96.70;;;;;;5033274;28;20037;-71
2022/03/11 07:22:10;;;;;;;23.60;17.00;;;4.20;96.80;;;;;;5033879;28;20042;-76
2022/03/11 07:24:36;;;;;;;22.67;17.07;;;4.20;96.80;;;;;;5033127;28;20041;-71
2022/03/11 07:27:02;;;;;;;23.90;17.67;;;4.30;96.10;;;;;;5034093;28;20409;-72
2022/03/11 07:29:27;;;;;;;24.00;16.90;;;4.40;95.70;;;;;;5016361;28;20114;-72
2022/03/11 07:31:53;;;;;;;26.07;19.17;;;4.60;96.80;;;;;;5033938;28;20048;-71
2022/03/11 07:34:20;;;;;;;26.97;17.63;;;5.30;95.70;;;;;;5033640;28;20481;-72
2022/03/11 07:36:47;;;;;;;21.45;15.43;;;5.70;94.70;;;;;;5033862;28;20041;-71
2022/03/11 07:39:12;;;;;;;26.33;18.52;;;5.70;93.00;;;;;;5033575;28;20424;-74
2022/03/11 07:41:38;;;;;;;24.43;18.03;;;5.70;92.80;;;;;;5033997;28;20048;-71
2022/03/11 07:44:04;;;;;;;26.17;18.00;;;5.70;91.30;;;;;;5031881;28;20049;-71
2022/03/11 07:46:31;;;;;;;22.25;16.00;;;5.70;89.50;;;;;;5015974;28;20099;-71
2022/03/11 07:48:57;;;;;;;25.10;17.55;;;5.70;89.70;;;;;;5033666;28;20495;-71
2022/03/11 07:51:25;;;;;;;27.33;18.67;;;5.80;90.10;;;;;;5033057;28;20528;-72
2022/03/11 07:53:50;;;;;;;24.52;18.58;;;5.90;88.90;;;;;;5033581;28;20492;-71
2022/03/11 07:56:17;;;;;;;25.60;17.33;;;6.00;88.10;;;;;;5032193;28;20180;-72
2022/03/11 07:58:43;;;;;;;23.33;16.98;;;6.00;86.60;;;;;;5033795;28;20052;-71
2022/03/11 08:01:10;;;;;;;26.55;17.33;;;6.10;85.90;;;;;;5033518;28;20038;-71
2022/03/11 08:03:39;;;;;;;22.88;15.13;;;6.20;84.60;;;;;;5033115;28;20041;-71
2022/03/11 08:06:08;;;;;;;22.13;16.15;;;6.20;83.60;;;;;;5033449;28;20045;-71
2022/03/11 08:08:38;;;;;;;22.77;16.40;;;6.40;82.00;;;;;;5031446;28;20872;-71
2022/03/11 08:11:06;;;;;;;20.58;15.07;;;6.50;82.20;;;;;;5033345;28;20477;-71
2022/03/11 08:13:32;;;;;;;21.42;15.10;;;6.60;81.40;;;;;;5032002;28;20102;-72
2022/03/11 08:15:58;;;;;;;24.90;15.53;;;6.70;80.40;;;;;;5033357;28;20120;-71
2022/03/11 08:18:24;;;;;;;23.50;16.30;;;6.70;80.20;;;;;;5031751;28;20080;-72
2022/03/11 08:20:49;;;;;;;23.93;15.30;;;6.80;80.00;;;;;;5033092;28;20542;-71
2022/03/11 08:23:15;;;;;;;24.50;15.37;;;6.80;77.20;;;;;;5032033;28;20041;-71
2022/03/11 08:25:41;;;;;;;21.63;15.53;;;6.80;77.20;;;;;;5033015;28;20096;-72
2022/03/11 08:28:10;;;;;;;22.57;15.07;;;6.90;77.10;;;;;;5031951;28;20528;-69
2022/03/11 08:30:36;;;;;;;21.13;16.00;;;6.90;74.70;;;;;;5032724;28;20128;-69
2022/03/11 08:33:02;;;;;;;23.20;15.98;;;6.90;75.30;;;;;;5031839;28;20049;-69
2022/03/11 08:35:28;;;;;;;21.08;15.32;;;6.90;75.30;;;;;;5031167;28;20050;-69
2022/03/11 08:37:54;;;;;;;24.27;16.10;;;7.00;74.00;;;;;;5032669;28;20382;-69
2022/03/11 08:40:23;;;;;;;24.63;16.03;;;7.00;74.50;;;;;;5015164;28;20048;-69
2022/03/11 08:42:50;;;;;;;22.08;15.88;;;7.00;72.70;;;;;;5032919;28;20042;-68
2022/03/11 08:45:18;;;;;;;24.05;15.30;;;7.00;74.00;;;;;;5032864;28;20056;-69
2022/03/11 08:47:44;;;;;;;25.63;16.73;;;7.10;72.30;;;;;;5032922;28;20107;-69
2022/03/11 08:50:10;;;;;;;23.85;16.25;;;7.10;72.20;;;;;;5032085;28;20053;-69
2022/03/11 08:52:36;;;;;;;21.07;14.83;;;7.10;72.50;;;;;;5032549;28;20440;-69
2022/03/11 08:55:02;;;;;;;21.20;15.32;;;7.20;72.70;;;;;;5034121;28;20079;-69
2022/03/11 08:57:28;;;;;;;23.27;14.88;;;7.20;71.30;;;;;;5036492;28;20056;-69
2022/03/11 08:59:54;;;;;;;24.47;15.37;;;7.20;69.50;;;;;;5036715;28;20049;-69
2022/03/11 09:02:22;;;;;;;21.97;15.07;;;7.20;70.20;;;;;;5036736;28;20474;-75
2022/03/11 09:04:48;;;;;;;22.92;16.02;;;7.30;70.80;;;;;;5036967;28;20405;-69
2022/03/11 09:07:14;;;;;;;23.70;15.57;;;7.40;69.80;;;;;;5043942;28;20503;-69
2022/03/11 09:09:41;;;;;;;23.30;16.10;;;7.40;69.90;;;;;;5056329;28;20728;-69
2022/03/11 09:12:06;;;;;;;23.35;15.55;;;7.40;69.40;;;;;;5056682;28;20124;-69
2022/03/11 09:14:33;;;;;;;24.03;15.90;;;7.50;67.20;;;;;;5056216;28;20449;-69
2022/03/11 09:17:00;;;;;;;23.80;15.68;;;7.50;68.30;;;;;;5056449;28;20044;-69
2022/03/11 09:19:26;;;;;;;24.30;15.35;;;7.50;69.00;;;;;;5056245;28;20080;-69
2022/03/11 09:21:51;;;;;;;23.17;16.57;;;7.60;68.80;;;;;;5056341;28;20444;-69
2022/03/11 09:24:17;;;;;;;25.63;16.17;;;7.60;69.30;;;;;;5056285;28;20361;-69
2022/03/11 09:26:47;;;;;;;21.40;16.13;;;7.70;69.30;;;;;;5055905;28;20095;-69
2022/03/11 09:29:13;;;;;;;22.48;15.60;;;7.70;68.90;;;;;;5056163;28;20114;-69
2022/03/11 09:31:39;;;;;;;21.37;15.50;;;7.80;68.70;;;;;;5038171;28;20053;-68
2022/03/11 09:34:05;;;;;;;24.13;16.07;;;7.80;68.30;;;;;;5056102;28;20136;-70
2022/03/11 09:36:30;;;;;;;22.40;16.07;;;7.90;68.40;;;;;;5055688;28;20127;-69
2022/03/11 09:38:56;;;;;;;23.10;15.07;;;7.90;67.30;;;;;;5055936;28;20049;-69
2022/03/11 09:41:27;;;;;;;23.27;15.87;;;8.00;66.60;;;;;;5055893;28;20041;-69
2022/03/11 09:43:55;;;;;;;24.10;15.55;;;8.00;66.60;;;;;;5038541;28;20049;-69
2022/03/11 09:46:21;;;;;;;21.45;15.05;;;8.00;65.50;;;;;;5038004;28;20049;-69
2022/03/11 09:48:48;;;;;;;23.17;15.98;;;8.10;66.20;;;;;;5055387;28;20083;-69
2022/03/11 09:51:15;;;;;;;22.83;15.77;;;8.10;65.40;;;;;;5055718;28;20080;-69
2022/03/11 09:53:42;;;;;;;21.25;15.57;;;8.10;66.10;;;;;;5055491;28;20054;-69
2022/03/11 09:56:08;;;;;;;22.10;16.17;;;8.10;65.90;;;;;;5055609;28;20048;-69
2022/03/11 09:58:34;;;;;;;25.30;17.90;;;8.20;65.60;;;;;;5037640;28;20041;-70
2022/03/11 10:01:00;;;;;;;22.55;15.80;;;8.20;66.30;;;;;;5055461;28;20124;-69
2022/03/11 10:03:29;;;;;;;22.57;16.23;;;8.30;65.60;;;;;;5021189;28;20190;-76
2022/03/11 10:05:55;;;;;;;25.55;16.15;;;8.30;65.20;;;;;;5037770;28;20135;-70
2022/03/11 10:08:31;;;;;;;22.80;15.70;;;8.30;65.00;;;;;;5054594;28;20132;-70
2022/03/11 10:11:23;;;;;;;25.63;15.80;;;8.40;64.70;;;;;;5055220;28;20099;-69
2022/03/11 10:13:51;;;;;;;22.55;15.32;;;8.50;63.80;;;;;;5037394;28;20064;-70
2022/03/11 10:16:21;;;;;;;22.33;15.40;;;8.50;65.10;;;;;;5055566;28;20388;-69
2022/03/11 10:18:55;;;;;;;25.40;15.68;;;8.60;63.80;;;;;;5054952;28;20063;-69
2022/03/11 10:21:27;;;;;;;22.05;15.57;;;8.60;62.50;;;;;;5055344;28;20098;-77
2022/03/11 10:23:53;;;;;;;21.40;15.77;;;8.60;62.70;;;;;;5055192;28;20107;-79
2022/03/11 10:26:46;;;;;;;20.77;16.13;;;8.60;62.70;;;;;;5037291;28;20041;-77
2022/03/11 10:29:17;;;;;;;22.23;17.20;;;8.70;60.80;;;;;;5055364;28;20055;-77
2022/03/11 10:31:45;;;;;;;20.80;15.85;;;8.70;61.60;;;;;;5037409;28;20087;-77
2022/03/11 10:34:26;;;;;;;22.38;16.25;;;8.80;61.70;;;;;;5037146;28;20056;-77
2022/03/11 10:36:56;;;;;;;21.13;15.95;;;8.70;62.40;;;;;;5037047;28;20049;-78
2022/03/11 10:39:27;;;;;;;23.63;16.17;;;8.80;62.20;;;;;;5054796;28;20095;-78
2022/03/11 10:41:54;;;;;;;23.10;15.82;;;8.80;62.20;;;;;;5054514;28;20053;-77
2022/03/11 10:44:22;;;;;;;20.45;15.65;;;8.90;61.60;;;;;;5054758;28;20049;-78
2022/03/11 10:46:49;;;;;;;21.10;16.20;;;8.90;61.60;;;;;;5054475;28;20074;-77
2022/03/11 10:49:25;;;;;;;21.67;16.48;;;8.80;60.90;;;;;;5036896;28;20373;-77
2022/03/11 10:51:53;;;;;;;21.45;15.93;;;8.90;60.80;;;;;;5054377;28;20055;-77
2022/03/11 10:54:23;;;;;;;24.40;15.77;;;9.00;61.30;;;;;;5054335;28;20507;-82
2022/03/11 10:56:49;;;;;;;21.83;16.25;;;9.00;61.00;;;;;;5036582;28;20049;-69
2022/03/11 10:59:27;;;;;;;25.37;17.37;;;9.00;60.70;;;;;;5054400;28;20041;-77
2022/03/11 11:01:57;;;;;;;20.95;15.90;;;9.10;60.60;;;;;;5054233;28;20072;-76
2022/03/11 11:04:25;;;;;;;23.58;16.10;;;9.10;60.90;;;;;;5055903;28;20098;-76
2022/03/11 11:06:51;;;;;;;22.13;16.23;;;9.10;61.00;;;;;;5053980;28;20045;-74
2022/03/11 11:09:18;;;;;;;24.02;17.27;;;9.20;61.30;;;;;;5054528;28;20052;-76
2022/03/11 11:11:45;;;;;;;24.35;17.95;;;9.30;61.40;;;;;;5054017;28;20106;-76
2022/03/11 11:14:12;;;;;;;26.17;17.67;;;9.30;61.10;;;;;;5054360;28;20503;-72
2022/03/11 11:16:42;;;;;;;26.17;18.42;;;9.40;60.70;;;;;;5053906;28;20082;-76
2022/03/11 11:19:13;;;;;;;25.50;18.20;;;9.40;60.70;;;;;;5054141;28;20435;-75
2022/03/11 11:21:42;;;;;;;26.48;18.30;;;9.50;61.00;;;;;;5053637;28;20052;-72
2022/03/11 11:24:14;;;;;;;27.77;19.30;;;9.50;61.20;;;;;;5053971;28;20055;-76
2022/03/11 11:26:48;;;;;;;25.27;16.98;;;9.50;60.10;;;;;;5053335;28;20488;-73
2022/03/11 11:29:20;;;;;;;26.40;18.88;;;9.60;59.60;;;;;;5053987;28;20087;-70
2022/03/11 11:31:47;;;;;;;24.58;18.23;;;9.60;58.80;;;;;;5053485;28;20072;-70
2022/03/11 11:34:34;;;;;;;25.08;17.35;;;9.60;59.90;;;;;;5019495;28;20049;-68
2022/03/11 11:37:03;;;;;;;23.80;16.45;;;9.70;58.70;;;;;;5035987;28;20056;-79
2022/03/11 11:39:41;;;;;;;24.02;17.17;;;9.70;59.70;;;;;;5035906;28;20137;-80
2022/03/11 11:42:09;;;;;;;22.38;16.27;;;9.70;59.40;;;;;;5036099;28;20045;-80
2022/03/11 11:44:37;;;;;;;24.30;16.50;;;9.80;59.80;;;;;;5036302;28;20428;-74
2022/03/11 11:47:15;;;;;;;24.40;16.35;;;9.90;59.50;;;;;;5018898;28;20495;-69
2022/03/11 11:49:52;;;;;;;24.23;17.88;;;10.00;59.90;;;;;;5053459;28;20080;-70
2022/03/11 11:52:38;;;;;;;29.02;19.70;;;10.00;58.80;;;;;;5053628;28;20083;-69
2022/03/11 11:55:19;;;;;;;23.80;16.35;;;10.00;58.20;;;;;;5053529;28;20405;-69
2022/03/11 11:57:46;;;;;;;26.25;18.08;;;10.10;57.40;;;;;;5053116;28;20049;-69
2022/03/11 12:00:27;;;;;;;24.88;18.48;;;10.10;58.60;;;;;;5035451;28;20114;-70
2022/03/11 12:02:53;;;;;;;20.17;16.58;;;10.20;58.30;;;;;;5052855;28;20053;-69
2022/03/11 12:05:38;;;;;;;22.80;17.80;;;10.30;58.20;;;;;;5053132;28;20060;-74
2022/03/11 12:08:04;;;;;;;20.90;16.00;;;10.30;57.20;;;;;;5034833;28;20053;-69
2022/03/11 12:10:30;;;;;;;22.77;17.10;;;10.30;57.20;;;;;;5053100;28;20037;-69
2022/03/11 12:12:59;;;;;;;21.77;17.50;;;10.40;57.30;;;;;;5052822;28;20048;-69
2022/03/11 12:15:26;;;;;;;24.25;16.83;;;10.40;57.40;;;;;;5053131;28;20458;-78
2022/03/11 12:17:59;;;;;;;20.38;15.30;;;10.50;56.90;;;;;;5052891;28;20060;-78
2022/03/11 12:20:37;;;;;;;20.25;15.43;;;10.50;56.30;;;;;;5052848;28;20052;-70
2022/03/11 12:23:05;;;;;;;24.50;16.10;;;10.60;54.80;;;;;;5035212;28;20053;-69
2022/03/11 12:25:36;;;;;;;19.98;15.35;;;10.60;55.30;;;;;;5048800;28;20421;-70
2022/03/11 12:28:12;;;;;;;24.70;16.75;;;10.60;55.40;;;;;;5051232;28;20127;-69
2022/03/11 12:30:40;;;;;;;22.30;15.98;;;10.60;55.20;;;;;;5047181;28;20045;-74
2022/03/11 12:33:11;;;;;;;21.58;15.27;;;10.60;55.00;;;;;;5048095;28;20111;-70
2022/03/11 12:35:38;;;;;;;21.45;15.52;;;10.70;53.50;;;;;;5032380;28;20053;-72
2022/03/11 12:38:09;;;;;;;23.08;14.88;;;10.70;53.80;;;;;;5028493;28;20124;-69